createdAt,value
2023-04-23T00:04:51.750Z,73.82
2023-04-23T00:09:44.880Z,73.46
2023-04-23T00:14:39.944Z,74.95
2023-04-23T00:19:33.365Z,74.31
2023-04-23T00:24:26.604Z,74.74
2023-04-23T00:29:19.792Z,74.70
2023-04-23T00:34:14.344Z,74.70
2023-04-23T00:39:07.586Z,74.81
2023-04-23T00:44:01.865Z,75.16
2023-04-23T00:48:56.123Z,76.16
2023-04-23T00:53:50.614Z,76.60
2023-04-23T00:58:43.995Z,77.33
2023-04-23T01:03:38.761Z,77.37
2023-04-23T01:08:33.709Z,77.24
2023-04-23T01:13:29.910Z,77.60
2023-04-23T01:18:24.432Z,78.29
2023-04-23T01:23:19.097Z,78.51
2023-04-23T01:28:13.154Z,80.33
2023-04-23T01:33:07.426Z,80.29
2023-04-23T01:38:03.963Z,81.43
2023-04-23T01:42:59.425Z,81.03
2023-04-23T01:47:52.964Z,81.43
2023-04-23T01:52:46.522Z,81.51
2023-04-23T01:57:39.781Z,82.25
2023-04-23T02:02:34.470Z,83.36
2023-04-23T02:07:27.740Z,83.98
2023-04-23T02:12:21.111Z,84.71
2023-04-23T02:17:14.392Z,84.92
2023-04-23T02:22:09.512Z,84.93
2023-04-23T02:27:03.610Z,85.03
2023-04-23T02:31:56.925Z,86.09
2023-04-23T02:36:50.213Z,86.10
2023-04-23T02:41:44.857Z,86.23
2023-04-23T02:46:38.556Z,86.25
2023-04-23T02:51:32.247Z,86.82
2023-04-23T02:56:25.948Z,87.36
2023-04-23T03:01:21.383Z,87.78
2023-04-23T03:06:14.787Z,87.37
2023-04-23T03:11:07.974Z,84.80
2023-04-23T03:16:01.274Z,83.79
2023-04-23T03:20:56.521Z,82.58
2023-04-23T03:25:50.028Z,81.72
2023-04-23T03:30:43.452Z,82.60
2023-04-23T03:35:36.825Z,83.92
2023-04-23T03:40:36.002Z,84.07
2023-04-23T03:45:32.278Z,82.99
2023-04-23T03:50:26.286Z,81.21
2023-04-23T03:55:33.518Z,81.65
2023-04-23T04:00:28.536Z,82.35
2023-04-23T04:05:21.883Z,82.53
2023-04-23T04:10:15.199Z,83.13
2023-04-23T04:15:10.420Z,84.20
2023-04-23T04:20:05.336Z,84.58
2023-04-23T04:24:59.364Z,84.81
2023-04-23T04:29:53.028Z,83.36
2023-04-23T04:34:47.137Z,82.43
2023-04-23T04:39:41.946Z,82.46
2023-04-23T04:44:37.584Z,83.07
2023-04-23T04:49:31.186Z,83.75
2023-04-23T04:54:24.366Z,84.21
2023-04-23T04:59:19.156Z,84.50
2023-04-23T05:04:12.798Z,85.51
2023-04-23T05:09:06.419Z,85.79
2023-04-23T05:13:59.925Z,85.11
2023-04-23T05:18:54.626Z,84.96
2023-04-23T05:23:48.650Z,83.40
2023-04-23T05:28:42.238Z,79.60
2023-04-23T05:33:46.358Z,80.05
2023-04-23T05:38:45.760Z,78.08
2023-04-23T05:43:39.061Z,74.88
2023-04-23T05:48:32.440Z,71.96
2023-04-23T05:53:26.980Z,71.44
2023-04-23T05:58:22.659Z,70.21
2023-04-23T06:03:16.838Z,70.30
2023-04-23T06:08:10.474Z,70.70
2023-04-23T06:13:03.916Z,70.45
2023-04-23T06:18:00.989Z,71.05
2023-04-23T06:22:54.472Z,70.29
2023-04-23T06:27:49.547Z,69.42
2023-04-23T06:32:47.772Z,68.30
2023-04-23T06:37:42.239Z,67.59
2023-04-23T06:42:35.476Z,68.02
2023-04-23T06:47:49.278Z,68.01
2023-04-23T06:52:44.385Z,66.61
2023-04-23T06:57:39.448Z,66.31
2023-04-23T07:02:33.028Z,62.81
2023-04-23T07:07:26.387Z,53.34
2023-04-23T07:12:21.391Z,51.72
2023-04-23T07:17:15.540Z,53.25
2023-04-23T07:22:08.684Z,51.91
2023-04-23T07:27:02.184Z,49.55
2023-04-23T07:31:56.812Z,47.60
2023-04-23T07:36:50.220Z,45.60
2023-04-23T07:41:43.566Z,41.89
2023-04-23T07:46:36.803Z,42.94
2023-04-23T07:51:31.965Z,41.98
2023-04-23T07:56:25.802Z,41.55
2023-04-23T08:01:21.860Z,40.45
2023-04-23T08:06:15.172Z,39.09
2023-04-23T08:11:11.164Z,40.72
2023-04-23T08:16:04.402Z,40.68
2023-04-23T08:20:57.699Z,39.72
2023-04-23T08:25:50.916Z,39.07
2023-04-23T08:30:45.586Z,38.64
2023-04-23T08:35:38.866Z,39.27
2023-04-23T08:40:34.220Z,37.19
2023-04-23T08:45:27.385Z,37.45
2023-04-23T08:50:22.004Z,33.06
2023-04-23T08:55:16.124Z,29.32
2023-04-23T09:00:11.767Z,33.38
2023-04-23T09:05:16.614Z,30.65
2023-04-23T09:10:15.460Z,27.04
2023-04-23T09:15:12.883Z,26.35
2023-04-23T09:20:11.000Z,27.03
2023-04-23T09:25:05.731Z,26.09
2023-04-23T09:30:05.283Z,29.58
2023-04-23T09:34:58.627Z,27.11
2023-04-23T09:39:54.762Z,26.96
2023-04-23T09:44:59.733Z,28.78
2023-04-23T09:49:53.174Z,31.76
2023-04-23T09:54:47.542Z,28.37
2023-04-23T10:04:41.995Z,30.30
2023-04-23T10:09:36.178Z,30.36
2023-04-23T10:14:30.960Z,31.73
2023-04-23T10:19:25.944Z,27.47
2023-04-23T10:24:22.171Z,29.07
2023-04-23T10:29:17.421Z,28.71
2023-04-23T10:34:12.113Z,29.10
2023-04-23T10:39:09.388Z,29.41
2023-04-23T10:44:05.050Z,30.33
2023-04-23T10:49:08.077Z,27.22
2023-04-23T10:54:01.347Z,25.72
2023-04-23T10:58:54.629Z,25.03
2023-04-23T11:03:49.354Z,22.94
2023-04-23T11:08:54.221Z,26.38
2023-04-23T11:13:55.209Z,24.66
2023-04-23T11:19:03.886Z,25.52
2023-04-23T11:23:59.116Z,28.21
2023-04-23T11:28:54.973Z,28.63
2023-04-23T11:33:48.176Z,30.86
2023-04-23T11:38:48.978Z,30.49
2023-04-23T11:43:43.780Z,31.66
2023-04-23T11:48:37.611Z,34.05
2023-04-23T11:53:30.682Z,30.71
2023-04-23T11:58:25.386Z,35.57
2023-04-23T12:03:18.665Z,29.32
2023-04-23T12:08:13.267Z,28.61
2023-04-23T12:13:06.507Z,23.78
2023-04-23T12:18:11.948Z,20.79
2023-04-23T12:23:06.609Z,20.60
2023-04-23T12:28:01.183Z,20.75
2023-04-23T12:33:01.394Z,21.28
2023-04-23T12:37:56.134Z,23.01
2023-04-23T12:42:51.461Z,25.02
2023-04-23T12:47:44.739Z,29.15
2023-04-23T12:52:40.611Z,25.88
2023-04-23T12:57:35.088Z,25.48
2023-04-23T13:02:28.351Z,27.61
2023-04-23T13:07:21.890Z,24.62
2023-04-23T13:12:15.024Z,23.61
2023-04-23T13:17:12.268Z,20.13
2023-04-23T13:22:07.620Z,20.17
2023-04-23T13:27:03.639Z,18.16
2023-04-23T13:31:57.389Z,19.20
2023-04-23T13:36:52.540Z,20.23
2023-04-23T13:41:49.482Z,18.39
2023-04-23T13:46:47.734Z,18.04
2023-04-23T13:51:45.051Z,18.28
2023-04-23T13:56:39.746Z,17.90
2023-04-23T14:01:33.373Z,17.64
2023-04-23T14:06:28.994Z,18.76
2023-04-23T14:11:24.638Z,18.24
2023-04-23T14:16:19.494Z,20.79
2023-04-23T14:21:14.934Z,17.71
2023-04-23T14:26:17.584Z,17.83
2023-04-23T14:31:10.827Z,19.20
2023-04-23T14:36:07.754Z,17.50
2023-04-23T14:41:01.597Z,18.60
2023-04-23T14:45:54.715Z,18.26
2023-04-23T14:50:48.106Z,17.80
2023-04-23T14:55:43.483Z,17.83
2023-04-23T15:00:36.866Z,18.43
2023-04-23T15:05:30.288Z,20.92
2023-04-23T15:10:23.644Z,21.43
2023-04-23T15:15:41.177Z,25.51
2023-04-23T15:20:39.295Z,24.59
2023-04-23T15:25:33.306Z,25.13
2023-04-23T15:30:28.525Z,25.44
2023-04-23T15:35:21.633Z,26.23
2023-04-23T15:40:14.861Z,26.26
2023-04-23T15:45:10.253Z,26.20
2023-04-23T15:50:05.426Z,27.65
2023-04-23T15:54:59.655Z,27.49
2023-04-23T15:59:56.746Z,28.51
2023-04-23T16:04:50.990Z,29.06
2023-04-23T16:09:45.666Z,28.21
2023-04-23T16:14:38.919Z,28.99
2023-04-23T16:19:32.076Z,29.53
2023-04-23T16:24:26.618Z,30.19
2023-04-23T16:29:22.483Z,30.36
2023-04-23T16:34:19.208Z,30.98
2023-04-23T16:39:12.440Z,31.78
2023-04-23T16:44:05.626Z,32.35
2023-04-23T16:49:00.366Z,33.92
2023-04-23T16:53:53.844Z,33.91
2023-04-23T16:58:47.436Z,34.58
2023-04-23T17:03:41.147Z,35.10
2023-04-23T17:08:38.512Z,35.26
2023-04-23T17:13:35.368Z,36.06
2023-04-23T17:18:28.528Z,36.31
2023-04-23T17:23:21.734Z,36.39
2023-04-23T17:28:18.440Z,37.44
2023-04-23T17:33:17.100Z,37.21
2023-04-23T17:38:11.262Z,37.44
2023-04-23T17:43:07.119Z,37.33
2023-04-23T17:48:03.177Z,37.52
2023-04-23T17:52:58.122Z,37.84
2023-04-23T17:57:52.026Z,38.39
2023-04-23T18:02:45.381Z,38.50
2023-04-23T18:07:41.173Z,39.24
2023-04-23T18:12:35.765Z,39.45
2023-04-23T18:17:29.168Z,39.96
2023-04-23T18:22:22.945Z,40.67
2023-04-23T18:27:20.620Z,41.64
2023-04-23T18:32:20.916Z,42.02
2023-04-23T18:37:37.952Z,42.31
2023-04-23T18:42:32.652Z,43.04
2023-04-23T18:47:32.260Z,43.19
2023-04-23T18:52:25.493Z,44.13
2023-04-23T18:57:18.801Z,44.81
2023-04-23T19:02:21.389Z,45.13
2023-04-23T19:07:18.147Z,45.97
2023-04-23T19:12:17.243Z,46.88
2023-04-23T19:17:13.061Z,47.37
2023-04-23T19:22:07.616Z,48.24
2023-04-23T19:27:01.218Z,48.31
2023-04-23T19:31:55.191Z,48.50
2023-04-23T19:36:48.626Z,48.86
2023-04-23T19:41:43.265Z,48.88
2023-04-23T19:46:36.484Z,48.72
2023-04-23T19:51:35.577Z,48.73
2023-04-23T19:56:28.910Z,48.53
2023-04-23T20:01:23.860Z,49.19
2023-04-23T20:06:17.219Z,48.76
2023-04-23T20:11:10.647Z,49.29
2023-04-23T20:16:04.210Z,50.11
2023-04-23T20:21:00.377Z,50.20
2023-04-23T20:25:53.665Z,49.74
2023-04-23T20:30:47.297Z,50.88
2023-04-23T20:35:41.993Z,51.58
2023-04-23T20:40:36.683Z,51.42
2023-04-23T20:45:29.899Z,52.04
2023-04-23T20:50:25.611Z,52.78
2023-04-23T20:55:19.114Z,53.22
2023-04-23T21:00:15.016Z,54.09
2023-04-23T21:05:09.235Z,54.98
2023-04-23T21:10:02.495Z,55.07
2023-04-23T21:14:56.507Z,55.61
2023-04-23T21:19:53.960Z,56.35
2023-04-23T21:24:47.551Z,56.21
2023-04-23T21:29:41.440Z,56.34
2023-04-23T21:34:34.856Z,56.44
2023-04-23T21:39:31.812Z,56.23
2023-04-23T21:44:25.244Z,56.19
2023-04-23T21:49:18.524Z,55.07
2023-04-23T21:54:17.483Z,54.78
2023-04-23T21:59:12.225Z,55.33
2023-04-23T22:04:05.765Z,55.57
2023-04-23T22:08:59.214Z,55.88
2023-04-23T22:13:55.942Z,55.70
2023-04-23T22:18:50.648Z,55.84
2023-04-23T22:23:43.840Z,56.55
2023-04-23T22:28:37.046Z,56.17
2023-04-23T22:33:30.213Z,56.71
2023-04-23T22:38:27.823Z,56.62
2023-04-23T22:43:23.264Z,55.91
2023-04-23T22:48:16.504Z,55.40
2023-04-23T22:53:09.812Z,55.54
2023-04-23T22:58:04.411Z,55.73
2023-04-23T23:02:57.716Z,54.96
2023-04-23T23:07:52.142Z,54.85
2023-04-23T23:12:47.701Z,54.55
2023-04-23T23:17:42.377Z,55.13
2023-04-23T23:22:35.829Z,55.44
2023-04-23T23:27:29.035Z,55.34
2023-04-23T23:32:22.969Z,54.94
2023-04-23T23:37:17.718Z,55.32
2023-04-23T23:42:11.397Z,55.17
2023-04-23T23:47:04.782Z,55.94
2023-04-23T23:51:58.757Z,55.53
2023-04-23T23:56:53.329Z,54.89
